Hlavní strana
METAR-TAF:

METAR-TAF

Letiště :

Berlevåg, Norsko

zeměpisná šířka: 70-52N, zeměpisná délka: 029-02E, výška: 1 m

Aktuální stav počasí

Zpráva byla vytvořena před 1 hodinou a 49 minutami, v 13:50 UTC
Jihojihovýchodní vítr 16 kt
Teplota 11°C
Vlhkost vzduchu 62%
Tlak 1001 hPa
Viditelnost 10 km a více
Polojasno ve výšce 4000 ft

METAR: ENBV 241350Z 16016KT 9999 SCT040 11/04 Q1001

Čas: 17:39 (15:39 UTC)

Předpověď počasí

Zpráva byla vytvořena před 1 hodinou a 39 minutami, v 14:00 UTC
Předpověď platná od 24 v 15 UTC do 24 v 21 UTC
Jihojihovýchodní vítr 15 kt
Viditelnost 10 km a více
Oblačno až skoro zataženo ve výšce 3500 ft

TAF: ENBV 241400Z 2415/2421 16015KT 9999 BKN035

Stav a předpovědi počasí z více než 4 000 letišť (zprávy METAR a TAF).

Červené a žluté tečky na mapě představují dostupné meteorologické stanice.

Když kurzor umístíte na tečku, zobrazí se název stanice.

Pak kliknutím zobrazíte stav a předpověď počasí.

Chcete-li změnit mapu, kliknutím na zelené tlačítko se znaménkem +mapu přiblížíte, kliknutím na zelené tlačítko se znaménkem – mapu oddálíte a kliknutím na zelené šipky přejdete na sousední mapy.


METAR-TAF: